Decoded Metar for SADF (SAN FERNANDO in ARGENTINA) (IATA:N/A) | Meteo·Mobile Aviation Weather
aviador You're here:

SADF Decoded Metar

SAN FERNANDO in ARGENTINA
Report Time2018-11-16 17:00:00
UTC Time2018-11-16 17:43:10
Flight Rules vfr VFR
Wind070° at 13 kt
W.Decomp.*RWY 05: 11.5 kt HW 6.1 kt RCW
W.Rank070° ranks 6
Current wind is above 070° avg. (7.0)
Visibility9999 m
Phenomena:N/A
Clouds:N/A
Expected CloudBase > 3,200 ft AGL from Temp-Dew spread
CeilingNone
Temp19°C (ISA +4)
Dew Point11°C (60% RH)
AAT14.7°C
QNH1018 hPa
Density Alt492 ft
Elevation13 ft
Report Wrong Elevation
Raw Report
METAR SADF 161700Z 07013KT CAVOK 19/11 Q1018=

Extra information for SADF:More info

Metar Taf Metar & Taf Last 4 Metars F.Rules Stats Wind Profile Meteogram Temp Stats Airport Information Weather charts Add Link Nearby VenuesMetar ALERT Operation Metar Decoded Social comments